createdAt,value
2023-05-13T00:00:28.459Z,102141.69
2023-05-13T00:02:56.606Z,102147.31
2023-05-13T00:05:24.644Z,102145.00
2023-05-13T00:07:53.942Z,102140.25
2023-05-13T00:10:22.120Z,102140.91
2023-05-13T00:12:50.238Z,102144.38
2023-05-13T00:15:18.176Z,102140.56
2023-05-13T00:17:46.290Z,102145.69
2023-05-13T00:20:14.239Z,102141.03
2023-05-13T00:22:42.129Z,102141.31
2023-05-13T00:25:11.662Z,102142.88
2023-05-13T00:27:40.568Z,102142.00
2023-05-13T00:30:10.295Z,102143.00
2023-05-13T00:32:38.202Z,102138.69
2023-05-13T00:35:06.922Z,102141.38
2023-05-13T00:37:34.842Z,102143.56
2023-05-13T00:40:03.433Z,102144.53
2023-05-13T00:42:32.731Z,102139.03
2023-05-13T00:45:00.681Z,102134.97
2023-05-13T00:47:28.648Z,102135.19
2023-05-13T00:49:56.596Z,102134.59
2023-05-13T00:52:24.642Z,102137.41
2023-05-13T00:54:52.570Z,102133.38
2023-05-13T00:57:20.487Z,102136.66
2023-05-13T00:59:49.852Z,102129.81
2023-05-13T01:02:22.055Z,102136.84
2023-05-13T01:04:57.443Z,102135.28
2023-05-13T01:07:44.350Z,102134.22
2023-05-13T01:10:16.454Z,102130.97
2023-05-13T01:12:46.455Z,102140.75
2023-05-13T01:15:16.875Z,102134.38
2023-05-13T01:17:50.799Z,102138.13
2023-05-13T01:20:20.080Z,102136.19
2023-05-13T01:22:49.581Z,102138.91
2023-05-13T01:25:17.493Z,102140.34
2023-05-13T01:27:45.940Z,102131.53
2023-05-13T01:30:14.734Z,102136.28
2023-05-13T01:32:42.728Z,102144.06
2023-05-13T01:35:12.307Z,102137.69
2023-05-13T01:37:40.776Z,102150.03
2023-05-13T01:40:24.092Z,102144.41
2023-05-13T01:42:58.775Z,102143.47
2023-05-13T01:45:29.016Z,102141.75
2023-05-13T01:47:57.115Z,102145.19
2023-05-13T01:50:25.268Z,102154.38
2023-05-13T01:52:53.410Z,102146.19
2023-05-13T01:55:23.198Z,102139.91
2023-05-13T01:57:51.119Z,102141.03
2023-05-13T02:00:19.778Z,102149.31
2023-05-13T02:02:48.216Z,102148.94
2023-05-13T02:05:16.820Z,102148.53
2023-05-13T02:07:44.749Z,102152.50
2023-05-13T02:10:13.083Z,102150.78
2023-05-13T02:12:42.362Z,102144.78
2023-05-13T02:15:11.346Z,102149.69
2023-05-13T02:17:39.373Z,102146.41
2023-05-13T02:20:09.155Z,102150.31
2023-05-13T02:22:37.231Z,102149.31
2023-05-13T02:25:05.279Z,102146.56
2023-05-13T02:27:33.221Z,102146.66
2023-05-13T02:30:02.537Z,102139.25
2023-05-13T02:32:30.478Z,102142.06
2023-05-13T02:34:58.416Z,102138.72
2023-05-13T02:37:26.718Z,102146.94
2023-05-13T02:39:54.652Z,102146.72
2023-05-13T02:42:22.686Z,102145.00
2023-05-13T02:44:50.755Z,102137.94
2023-05-13T02:47:20.170Z,102140.75
2023-05-13T02:49:48.589Z,102150.81
2023-05-13T02:52:16.643Z,102144.50
2023-05-13T02:54:44.623Z,102145.44
2023-05-13T02:57:12.599Z,102148.22
2023-05-13T02:59:41.840Z,102140.50
2023-05-13T03:02:09.795Z,102132.03
2023-05-13T03:04:41.232Z,102139.63
2023-05-13T03:07:09.131Z,102144.91
2023-05-13T03:09:39.228Z,102143.50
2023-05-13T03:12:07.730Z,102146.88
2023-05-13T03:14:37.120Z,102138.63
2023-05-13T03:17:05.175Z,102148.28
2023-05-13T03:19:33.085Z,102145.16
2023-05-13T03:22:02.381Z,102150.97
2023-05-13T03:24:30.373Z,102148.91
2023-05-13T03:26:58.376Z,102148.84
2023-05-13T03:29:26.332Z,102146.75
2023-05-13T03:31:54.754Z,102142.28
2023-05-13T03:34:22.657Z,102153.69
2023-05-13T03:36:50.565Z,102154.34
2023-05-13T03:39:19.824Z,102148.97
2023-05-13T03:41:47.737Z,102155.44
2023-05-13T03:44:15.612Z,102149.25
2023-05-13T03:46:43.648Z,102152.28
2023-05-13T03:49:12.113Z,102154.41
2023-05-13T03:51:40.019Z,102155.06
2023-05-13T03:54:07.933Z,102147.28
2023-05-13T03:56:37.223Z,102152.50
2023-05-13T03:59:05.132Z,102149.94
2023-05-13T04:01:33.038Z,102156.00
2023-05-13T04:04:00.948Z,102155.78
2023-05-13T04:06:28.829Z,102153.41
2023-05-13T04:08:56.741Z,102153.19
2023-05-13T04:11:24.642Z,102158.09
2023-05-13T04:13:54.022Z,102159.00
2023-05-13T04:16:22.646Z,102158.78
2023-05-13T04:18:50.690Z,102165.47
2023-05-13T04:21:18.589Z,102162.66
2023-05-13T04:23:46.502Z,102161.13
2023-05-13T04:26:14.420Z,102170.59
2023-05-13T04:28:42.317Z,102176.19
2023-05-13T04:31:12.266Z,102171.06
2023-05-13T04:33:40.180Z,102169.56
2023-05-13T04:36:08.312Z,102171.97
2023-05-13T04:38:36.227Z,102173.66
2023-05-13T04:41:04.172Z,102173.25
2023-05-13T04:43:32.201Z,102181.19
2023-05-13T04:46:00.132Z,102171.88
2023-05-13T04:48:29.468Z,102180.06
2023-05-13T04:50:58.435Z,102177.88
2023-05-13T04:53:26.828Z,102178.28
2023-05-13T04:56:00.614Z,102188.56
2023-05-13T04:58:28.727Z,102184.00
2023-05-13T05:00:57.442Z,102186.09
2023-05-13T05:03:25.591Z,102192.50
2023-05-13T05:05:54.930Z,102192.31
2023-05-13T05:08:22.852Z,102188.03
2023-05-13T05:10:50.821Z,102189.97
2023-05-13T05:13:18.746Z,102192.97
2023-05-13T05:15:46.645Z,102196.19
2023-05-13T05:18:14.709Z,102188.31
2023-05-13T05:20:42.701Z,102196.59
2023-05-13T05:23:12.009Z,102195.44
2023-05-13T05:25:39.926Z,102194.97
2023-05-13T05:28:07.880Z,102200.50
2023-05-13T05:30:39.745Z,102187.53
2023-05-13T05:33:08.223Z,102198.09
2023-05-13T05:35:37.341Z,102196.16
2023-05-13T05:38:05.806Z,102196.56
2023-05-13T05:40:42.127Z,102194.53
2023-05-13T05:43:11.032Z,102200.31
2023-05-13T05:45:39.531Z,102191.28
2023-05-13T05:48:08.207Z,102196.63
2023-05-13T05:50:36.595Z,102202.53
2023-05-13T05:53:04.928Z,102196.00
2023-05-13T05:55:34.270Z,102205.47
2023-05-13T05:58:05.643Z,102201.22
2023-05-13T06:00:34.198Z,102207.22
2023-05-13T06:03:02.251Z,102200.81
2023-05-13T06:05:30.319Z,102204.41
2023-05-13T06:07:58.241Z,102196.38
2023-05-13T06:10:26.253Z,102199.75
2023-05-13T06:12:55.544Z,102202.34
2023-05-13T06:15:23.553Z,102207.28
2023-05-13T06:17:51.521Z,102204.13
2023-05-13T06:20:19.810Z,102200.97
2023-05-13T06:22:48.261Z,102202.94
2023-05-13T06:25:16.321Z,102206.50
2023-05-13T06:27:44.284Z,102202.25
2023-05-13T06:30:14.168Z,102200.34
2023-05-13T06:32:50.337Z,102203.94
2023-05-13T06:35:25.600Z,102213.09
2023-05-13T06:37:53.531Z,102202.81
2023-05-13T06:40:21.747Z,102201.22
2023-05-13T06:42:49.955Z,102205.25
2023-05-13T06:45:23.295Z,102208.78
2023-05-13T06:47:51.598Z,102203.22
2023-05-13T06:50:19.894Z,102207.91
2023-05-13T06:52:47.976Z,102205.44
2023-05-13T06:55:18.970Z,102200.28
2023-05-13T06:57:47.480Z,102202.25
2023-05-13T07:00:16.215Z,102200.69
2023-05-13T07:02:45.867Z,102205.56
2023-05-13T07:05:14.113Z,102201.38
2023-05-13T07:07:43.335Z,102198.38
2023-05-13T07:10:12.055Z,102205.38
2023-05-13T07:12:40.115Z,102198.38
2023-05-13T07:15:09.424Z,102195.22
2023-05-13T07:17:37.577Z,102196.91
2023-05-13T07:20:08.765Z,102194.75
2023-05-13T07:22:36.693Z,102194.38
2023-05-13T07:25:04.929Z,102189.19
2023-05-13T07:27:32.948Z,102203.28
2023-05-13T07:30:01.074Z,102196.66
2023-05-13T07:32:30.581Z,102187.22
2023-05-13T07:34:58.528Z,102193.00
2023-05-13T07:37:27.992Z,102192.78
2023-05-13T07:39:56.293Z,102189.50
2023-05-13T07:42:24.199Z,102185.09
2023-05-13T07:44:52.758Z,102187.41
2023-05-13T07:47:21.011Z,102189.03
2023-05-13T07:49:49.267Z,102187.69
2023-05-13T07:52:17.227Z,102190.22
2023-05-13T07:54:46.483Z,102189.50
2023-05-13T07:57:14.412Z,102191.25
2023-05-13T07:59:44.532Z,102189.97
2023-05-13T08:02:13.206Z,102194.81
2023-05-13T08:04:48.803Z,102194.97
2023-05-13T08:07:16.992Z,102201.09
2023-05-13T08:09:46.336Z,102203.13
2023-05-13T08:12:14.426Z,102196.91
2023-05-13T08:14:42.319Z,102198.19
2023-05-13T08:17:12.619Z,102199.94
2023-05-13T08:19:42.113Z,102196.44
2023-05-13T08:22:10.057Z,102200.81
2023-05-13T08:24:38.157Z,102196.91
2023-05-13T08:27:07.730Z,102188.16
2023-05-13T08:29:35.780Z,102192.16
2023-05-13T08:32:03.734Z,102191.09
2023-05-13T08:34:31.699Z,102190.59
2023-05-13T08:36:59.627Z,102193.16
2023-05-13T08:39:27.548Z,102188.13
2023-05-13T08:41:57.989Z,102196.69
2023-05-13T08:44:34.289Z,102189.91
2023-05-13T08:47:12.984Z,102188.50
2023-05-13T08:49:41.002Z,102188.56
2023-05-13T08:52:09.861Z,102188.00
2023-05-13T08:54:38.236Z,102185.44
2023-05-13T08:57:06.744Z,102189.16
2023-05-13T08:59:36.069Z,102188.06
2023-05-13T09:02:05.700Z,102181.81
2023-05-13T09:04:34.400Z,102187.78
2023-05-13T09:07:02.842Z,102182.66
2023-05-13T09:09:30.860Z,102188.63
2023-05-13T09:11:58.748Z,102185.78
2023-05-13T09:14:31.382Z,102192.03
2023-05-13T09:17:00.795Z,102182.06
2023-05-13T09:19:28.808Z,102177.22
2023-05-13T09:21:57.693Z,102166.69
2023-05-13T09:24:25.656Z,102175.72
2023-05-13T09:26:53.850Z,102171.44
2023-05-13T09:29:23.884Z,102180.19
2023-05-13T09:31:53.403Z,102168.47
2023-05-13T09:34:30.797Z,102168.41
2023-05-13T09:37:03.697Z,102165.25
2023-05-13T09:39:33.830Z,102170.09
2023-05-13T09:42:04.926Z,102166.72
2023-05-13T09:44:33.832Z,102165.22
2023-05-13T09:47:03.475Z,102171.03
2023-05-13T09:49:33.132Z,102170.13
2023-05-13T09:52:01.052Z,102177.53
2023-05-13T09:54:37.606Z,102170.75
2023-05-13T09:57:06.165Z,102173.75
2023-05-13T09:59:34.540Z,102158.13
2023-05-13T10:02:06.754Z,102162.75
2023-05-13T10:04:36.305Z,102162.03
2023-05-13T10:07:05.244Z,102165.63
2023-05-13T10:09:38.714Z,102167.09
2023-05-13T10:12:09.686Z,102166.19
2023-05-13T10:14:38.320Z,102166.78
2023-05-13T10:17:07.036Z,102159.75
2023-05-13T10:19:36.721Z,102152.72
2023-05-13T10:22:05.215Z,102147.13
2023-05-13T10:24:33.176Z,102144.47
2023-05-13T10:27:03.163Z,102151.41
2023-05-13T10:29:31.333Z,102142.44
2023-05-13T10:31:59.990Z,102142.53
2023-05-13T10:34:28.745Z,102143.25
2023-05-13T10:37:18.348Z,102137.09
2023-05-13T10:40:11.242Z,102131.44
2023-05-13T10:42:42.733Z,102134.78
2023-05-13T10:45:10.949Z,102137.72
2023-05-13T10:47:39.717Z,102124.56
2023-05-13T10:50:08.938Z,102129.53
2023-05-13T10:52:46.603Z,102131.06
2023-05-13T10:55:19.865Z,102133.56
2023-05-13T10:58:13.863Z,102126.97
2023-05-13T11:00:43.412Z,102129.38
2023-05-13T11:03:17.430Z,102123.16
2023-05-13T11:05:48.397Z,102122.91
2023-05-13T11:08:35.734Z,102125.34
2023-05-13T11:11:04.101Z,102128.03
2023-05-13T11:13:38.360Z,102120.44
2023-05-13T11:16:08.506Z,102114.28
2023-05-13T11:18:36.827Z,102113.31
2023-05-13T11:21:05.987Z,102115.34
2023-05-13T11:23:36.871Z,102111.38
2023-05-13T11:26:12.648Z,102124.44
2023-05-13T11:29:02.336Z,102122.34
2023-05-13T11:31:44.119Z,102122.84
2023-05-13T11:34:14.800Z,102114.91
2023-05-13T11:36:45.846Z,102110.13
2023-05-13T11:39:16.773Z,102116.72
2023-05-13T11:41:46.363Z,102106.34
2023-05-13T11:44:16.199Z,102116.81
2023-05-13T11:46:55.040Z,102117.97
2023-05-13T11:49:38.913Z,102108.25
2023-05-13T11:52:08.900Z,102106.19
2023-05-13T11:54:46.578Z,102107.78
2023-05-13T11:57:22.379Z,102107.31
2023-05-13T11:59:54.629Z,102107.00
2023-05-13T12:02:23.846Z,102107.78
2023-05-13T12:04:52.325Z,102113.28
2023-05-13T12:07:24.500Z,102106.00
2023-05-13T12:09:55.014Z,102106.34
2023-05-13T12:12:23.102Z,102106.63
2023-05-13T12:14:51.515Z,102109.03
2023-05-13T12:17:20.107Z,102113.22
2023-05-13T12:20:11.043Z,102108.16
2023-05-13T12:22:49.851Z,102107.09
2023-05-13T12:25:41.804Z,102105.66
2023-05-13T12:28:16.907Z,102104.13
2023-05-13T12:30:50.108Z,102099.56
2023-05-13T12:33:19.217Z,102103.66
2023-05-13T12:35:49.708Z,102106.69
2023-05-13T12:38:18.804Z,102103.03
2023-05-13T12:40:49.125Z,102105.00
2023-05-13T12:43:18.877Z,102104.47
2023-05-13T12:45:47.908Z,102105.50
2023-05-13T12:48:15.995Z,102103.75
2023-05-13T12:50:43.894Z,102107.31
2023-05-13T12:53:11.817Z,102111.63
2023-05-13T12:55:40.223Z,102115.28
2023-05-13T12:58:12.032Z,102105.91
2023-05-13T13:00:40.046Z,102119.44
2023-05-13T13:03:08.499Z,102097.00
2023-05-13T13:05:36.869Z,102090.28
2023-05-13T13:08:06.248Z,102097.88
2023-05-13T13:10:34.868Z,102096.19
2023-05-13T13:13:03.024Z,102089.22
2023-05-13T13:15:32.317Z,102088.25
2023-05-13T13:18:00.456Z,102090.47
2023-05-13T13:20:28.474Z,102081.09
2023-05-13T13:22:56.363Z,102085.34
2023-05-13T13:25:24.575Z,102089.22
2023-05-13T13:27:52.665Z,102087.19
2023-05-13T13:30:20.622Z,102081.13
2023-05-13T13:32:49.966Z,102082.47
2023-05-13T13:35:20.674Z,102084.81
2023-05-13T13:37:48.811Z,102084.53
2023-05-13T13:40:17.148Z,102086.16
2023-05-13T13:42:45.339Z,102076.78
2023-05-13T13:45:14.242Z,102070.44
2023-05-13T13:47:42.214Z,102072.84
2023-05-13T13:50:12.822Z,102070.00
2023-05-13T13:52:40.817Z,102063.31
2023-05-13T13:55:11.645Z,102072.09
2023-05-13T13:57:39.711Z,102068.59
2023-05-13T14:00:09.477Z,102065.63
2023-05-13T14:02:40.776Z,102069.13
2023-05-13T14:05:09.475Z,102067.28
2023-05-13T14:07:38.862Z,102069.84
2023-05-13T14:10:08.124Z,102057.16
2023-05-13T14:12:36.809Z,102061.03
2023-05-13T14:15:05.499Z,102053.50
2023-05-13T14:17:33.714Z,102052.84
2023-05-13T14:20:01.812Z,102050.53
2023-05-13T14:22:29.749Z,102041.50
2023-05-13T14:25:01.350Z,102038.44
2023-05-13T14:27:29.857Z,102038.72
2023-05-13T14:29:57.793Z,102046.06
2023-05-13T14:32:26.085Z,102041.47
2023-05-13T14:34:54.385Z,102044.66
2023-05-13T14:37:22.297Z,102037.84
2023-05-13T14:39:50.443Z,102044.78
2023-05-13T14:42:21.202Z,102040.09
2023-05-13T14:44:49.088Z,102041.41
2023-05-13T14:47:16.995Z,102037.47
2023-05-13T14:49:44.905Z,102045.47
2023-05-13T14:52:13.184Z,102037.72
2023-05-13T14:54:41.364Z,102051.38
2023-05-13T14:57:09.323Z,102046.44
2023-05-13T14:59:38.657Z,102042.56
2023-05-13T15:02:06.887Z,102043.38
2023-05-13T15:04:34.801Z,102042.38
2023-05-13T15:07:03.971Z,102036.31
2023-05-13T15:09:31.973Z,102038.50
2023-05-13T15:11:59.955Z,102031.13
2023-05-13T15:14:28.374Z,102034.16
2023-05-13T15:16:58.146Z,102028.50
2023-05-13T15:19:26.124Z,102025.81
2023-05-13T15:21:54.221Z,102021.66
2023-05-13T15:24:22.157Z,102022.47
2023-05-13T15:26:50.553Z,102020.16
2023-05-13T15:29:18.571Z,102025.13
2023-05-13T15:31:46.571Z,102016.84
2023-05-13T15:34:15.865Z,102019.97
2023-05-13T15:36:43.767Z,102015.31
2023-05-13T15:39:12.041Z,102023.06
2023-05-13T15:41:39.963Z,102013.91
2023-05-13T15:44:07.844Z,102020.75
2023-05-13T15:46:35.994Z,102011.50
2023-05-13T15:49:04.108Z,102020.06
2023-05-13T15:51:33.713Z,102021.31
2023-05-13T15:54:01.659Z,102020.75
2023-05-13T15:56:29.559Z,102006.00
2023-05-13T15:58:57.518Z,102008.63
2023-05-13T16:01:25.477Z,102004.81
2023-05-13T16:03:53.421Z,102014.75
2023-05-13T16:06:21.400Z,102009.63
2023-05-13T16:08:50.673Z,102003.03
2023-05-13T16:11:18.631Z,102003.47
2023-05-13T16:13:46.521Z,101997.00
2023-05-13T16:16:14.486Z,101986.06
2023-05-13T16:18:43.217Z,101991.66
2023-05-13T16:21:11.191Z,101989.72
2023-05-13T16:23:39.258Z,101992.94
2023-05-13T16:26:08.535Z,101995.66
2023-05-13T16:28:36.536Z,101990.22
2023-05-13T16:31:04.529Z,101992.13
2023-05-13T16:33:33.821Z,101991.44
2023-05-13T16:36:01.746Z,101989.09
2023-05-13T16:38:35.175Z,101995.28
2023-05-13T16:41:03.611Z,101984.47
2023-05-13T16:43:33.090Z,101984.66
2023-05-13T16:46:01.062Z,101987.34
2023-05-13T16:48:29.145Z,101985.53
2023-05-13T16:50:57.125Z,101989.31
2023-05-13T16:53:26.314Z,101981.22
2023-05-13T16:55:54.281Z,101980.44
2023-05-13T16:58:22.218Z,101977.19
2023-05-13T17:00:52.422Z,101981.59
2023-05-13T17:03:20.472Z,101975.25
2023-05-13T17:05:48.530Z,101970.75
2023-05-13T17:08:18.874Z,101974.78
2023-05-13T17:10:46.780Z,101966.69
2023-05-13T17:13:14.734Z,101965.66
2023-05-13T17:15:42.615Z,101968.72
2023-05-13T17:18:11.907Z,101966.75
2023-05-13T17:20:39.796Z,101974.53
2023-05-13T17:23:07.737Z,101974.28
2023-05-13T17:25:35.654Z,101974.53
2023-05-13T17:28:03.534Z,101973.44
2023-05-13T17:30:31.483Z,101969.78
2023-05-13T17:32:59.430Z,101975.84
2023-05-13T17:35:28.774Z,101965.13
2023-05-13T17:37:56.747Z,101970.66
2023-05-13T17:40:24.880Z,101974.72
2023-05-13T17:42:53.005Z,101967.63
2023-05-13T17:45:21.376Z,101972.91
2023-05-13T17:47:49.353Z,101972.56
2023-05-13T17:50:18.349Z,101972.69
2023-05-13T17:52:47.729Z,101965.84
2023-05-13T17:55:15.719Z,101969.44
2023-05-13T17:57:43.718Z,101966.03
2023-05-13T18:00:12.967Z,101968.44
2023-05-13T18:02:41.255Z,101964.31
2023-05-13T18:05:10.263Z,101970.13
2023-05-13T18:07:38.160Z,101978.81
2023-05-13T18:10:09.170Z,101974.81
2023-05-13T18:12:37.190Z,101968.28
2023-05-13T18:15:05.892Z,101977.06
2023-05-13T18:17:33.847Z,101974.66
2023-05-13T18:20:01.856Z,101980.75
2023-05-13T18:22:29.739Z,101975.66
2023-05-13T18:24:57.652Z,101984.03
2023-05-13T18:27:27.094Z,101980.94
2023-05-13T18:29:54.994Z,101977.66
2023-05-13T18:32:22.944Z,101980.00
2023-05-13T18:34:50.909Z,101982.69
2023-05-13T18:37:18.837Z,101982.97
2023-05-13T18:39:46.842Z,101981.03
2023-05-13T18:42:14.727Z,101982.91
2023-05-13T18:44:44.445Z,101990.47
2023-05-13T18:47:12.376Z,101980.84
2023-05-13T18:49:40.498Z,101981.94
2023-05-13T18:52:08.692Z,101988.03
2023-05-13T18:54:36.683Z,101980.19
2023-05-13T18:57:04.914Z,101995.84
2023-05-13T18:59:32.855Z,101999.38
2023-05-13T19:02:02.278Z,102003.56
2023-05-13T19:04:30.414Z,102001.25
2023-05-13T19:06:58.455Z,102013.13
2023-05-13T19:09:26.363Z,102018.25
2023-05-13T19:11:54.236Z,102025.22
2023-05-13T19:14:22.175Z,102028.28
2023-05-13T19:16:50.216Z,102022.72
2023-05-13T19:19:22.569Z,102025.81
2023-05-13T19:21:50.469Z,102028.06
2023-05-13T19:24:18.417Z,102023.53
2023-05-13T19:26:46.361Z,102019.56
2023-05-13T19:29:14.332Z,102029.91
2023-05-13T19:31:42.253Z,102024.84
2023-05-13T19:34:10.208Z,102034.22
2023-05-13T19:36:39.516Z,102030.25
2023-05-13T19:39:07.535Z,102038.22
2023-05-13T19:41:35.543Z,102031.16
2023-05-13T19:44:03.471Z,102039.03
2023-05-13T19:46:31.450Z,102030.91
2023-05-13T19:48:59.416Z,102037.13
2023-05-13T19:51:27.562Z,102047.06
2023-05-13T19:53:57.081Z,102045.34
2023-05-13T19:56:25.080Z,102047.88
2023-05-13T19:58:52.992Z,102037.09
2023-05-13T20:01:41.300Z,102039.97
2023-05-13T20:04:09.872Z,102033.16
2023-05-13T20:06:37.904Z,102034.56
2023-05-13T20:09:07.410Z,102032.59
2023-05-13T20:11:35.290Z,102044.50
2023-05-13T20:14:03.200Z,102041.94
2023-05-13T20:16:31.137Z,102040.09
2023-05-13T20:18:59.095Z,102029.50
2023-05-13T20:21:27.105Z,102034.13
2023-05-13T20:24:10.207Z,102031.03
2023-05-13T20:26:39.605Z,102034.53
2023-05-13T20:29:08.188Z,102043.22
2023-05-13T20:31:36.158Z,102035.56
2023-05-13T20:34:04.385Z,102036.28
2023-05-13T20:36:32.678Z,102042.66
2023-05-13T20:39:00.611Z,102033.00
2023-05-13T20:41:28.908Z,102031.03
2023-05-13T20:43:58.202Z,102036.75
2023-05-13T20:46:26.247Z,102028.91
2023-05-13T20:48:54.174Z,102028.59
2023-05-13T20:51:22.231Z,102030.59
2023-05-13T20:53:50.421Z,102031.44
2023-05-13T20:56:18.330Z,102037.09
2023-05-13T20:58:46.316Z,102033.16
2023-05-13T21:01:15.811Z,102030.38
2023-05-13T21:03:43.771Z,102027.56
2023-05-13T21:06:11.837Z,102026.34
2023-05-13T21:08:40.260Z,102024.13
2023-05-13T21:11:08.292Z,102029.19
2023-05-13T21:13:36.207Z,102027.38
2023-05-13T21:16:05.386Z,102022.63
2023-05-13T21:18:34.759Z,102027.25
2023-05-13T21:21:08.473Z,102031.94
2023-05-13T21:23:37.052Z,102023.56
2023-05-13T21:26:06.251Z,102027.59
2023-05-13T21:28:34.263Z,102028.25
2023-05-13T21:31:02.266Z,102024.69
2023-05-13T21:33:30.453Z,102025.34
2023-05-13T21:35:59.714Z,102029.81
2023-05-13T21:38:28.543Z,102026.94
2023-05-13T21:40:56.477Z,102035.13
2023-05-13T21:43:24.380Z,102035.47
2023-05-13T21:45:52.293Z,102032.16
2023-05-13T21:48:20.316Z,102030.66
2023-05-13T21:50:48.298Z,102029.59
2023-05-13T21:53:17.695Z,102024.34
2023-05-13T21:55:45.937Z,102031.75
2023-05-13T21:58:13.872Z,102035.22
2023-05-13T22:00:41.879Z,102027.94
2023-05-13T22:03:09.869Z,102022.06
2023-05-13T22:05:43.641Z,102025.59
2023-05-13T22:08:11.938Z,102035.28
2023-05-13T22:10:41.361Z,102023.81
2023-05-13T22:13:09.250Z,102031.28
2023-05-13T22:15:37.133Z,102023.47
2023-05-13T22:18:05.436Z,102029.00
2023-05-13T22:20:33.377Z,102024.28
2023-05-13T22:23:01.300Z,102033.38
2023-05-13T22:25:29.228Z,102024.03
2023-05-13T22:27:58.651Z,102021.97
2023-05-13T22:30:26.555Z,102023.75
2023-05-13T22:32:55.849Z,102024.22
2023-05-13T22:35:23.993Z,102027.69
2023-05-13T22:37:52.718Z,102024.94
2023-05-13T22:40:20.928Z,102028.03
2023-05-13T22:42:48.960Z,102028.16
2023-05-13T22:45:18.508Z,102024.47
2023-05-13T22:47:46.433Z,102011.91
2023-05-13T22:50:14.362Z,102014.56
2023-05-13T22:52:42.251Z,102018.44
2023-05-13T22:55:10.866Z,102011.53
2023-05-13T22:57:38.821Z,102005.13
2023-05-13T23:00:08.401Z,102008.28
2023-05-13T23:02:37.700Z,102014.88
2023-05-13T23:05:06.191Z,102008.66
2023-05-13T23:07:34.185Z,102001.66
2023-05-13T23:10:02.204Z,102008.66
2023-05-13T23:12:30.123Z,102014.81
2023-05-13T23:14:58.085Z,102012.75
2023-05-13T23:17:26.090Z,102009.69
2023-05-13T23:19:55.542Z,102005.66
2023-05-13T23:22:23.482Z,102011.13
2023-05-13T23:24:51.491Z,102013.19
2023-05-13T23:27:19.433Z,102005.09
2023-05-13T23:29:47.325Z,102011.19
2023-05-13T23:32:15.252Z,102012.41
2023-05-13T23:34:43.136Z,102012.69
2023-05-13T23:37:12.526Z,102005.22
2023-05-13T23:39:40.435Z,101997.91
2023-05-13T23:42:08.483Z,101998.09
2023-05-13T23:44:36.408Z,102000.28
2023-05-13T23:47:04.579Z,102000.19
2023-05-13T23:49:32.546Z,101995.69
2023-05-13T23:52:00.437Z,101984.56
2023-05-13T23:54:29.825Z,101991.81
2023-05-13T23:56:57.708Z,101983.84
2023-05-13T23:59:25.583Z,101986.03
